Terminal Aerodrome Forecast
Issued by NWS Portland, OR

Home | Current Version | Previous Version | Text Only | Print | Product List | Glossary On
Versions: 1 2 3 4 5 6 7 8 9 10 11 12 13 14 15 16 17 18 19 20 21
000
FTUS46 KPQR 230520
TAFAST
TAF
KAST 230520Z 2306/2406 20012G18KT 4SM -RA BR SCT015 OVC035
     FM230900 22012KT P6SM -SHRA SCT015 OVC025
     FM231200 20010G18KT P6SM -RA BKN025 OVC040
     FM231800 18015G25KT P6SM -RA BKN025 OVC035=

USA.gov is the U.S. government's official web portal to all federal, state and local government web resources and services.